Tuscarora, Nevada
Current Conditions -  °F | °C
As of 6:56 AM on Wednesday 22 Oct 2014 (Local Time) from KEKO Reporting Station
Clear Clear  
Wind Chill: 28°   Ceiling: Unl
Heat Index: 28°   Visibility: 10mi
Dew Point: 17°   Wind: 3mph
Humidity: 63%   Direction: 60°ENE
Pressure: 30.18"   Gusts: NA
Location:  41.31°N, 116.22°W
Report Text: KEKO 221356Z AUTO 06003KT 10SM CLR M02/M08 A3018 RMK AO2 SLP227 T10221083 $
Loading
Personal Weather Stations






























Interactive Weather Map
Tropical Storm Tracking
New forecast layout! Learn more

10-Day Weather Forecast

Advertisements
Track Severe Weather on mobile